Time;durP1;ratioP1;P1;durP2;ratioP2;P2;SDS_P1;SDS_P2;PMS_P1;PMS_P2;Temp;Humidity;BMP_temperature;BMP_pressure;BME280_temperature;BME280_humidity;BME280_pressure;Samples;Min_cycle;Max_cycle;Signal;HPM_P1;HPM_P2
2022/06/26 00:00:24;;;;;;;;;;;;;;;19.49;57.75;96596.53;30001;983;1884;-58
2022/06/26 00:00:55;;;;;;;;;;;;;;;19.47;57.53;96596.09;30001;983;1867;-58
2022/06/26 00:01:25;;;;;;;;;;;;;;;19.45;57.69;96595.66;30001;982;1876;-58
2022/06/26 00:01:56;;;;;;;;;;;;;;;19.45;57.67;96592.91;30001;982;1881;-58
2022/06/26 00:02:27;;;;;;;;;;;;;;;19.45;57.66;96598.41;30001;982;1885;-58
2022/06/26 00:02:58;;;;;;;;;;;;;;;19.43;57.98;96599.56;30001;982;1880;-59
2022/06/26 00:03:35;;;;;;;;;;;;;;;19.40;58.05;96592.03;30001;968;1886;-57
2022/06/26 00:04:06;;;;;;;;;;;;;;;19.39;57.90;96598.72;30001;963;1891;-58
2022/06/26 00:04:39;;;;;;;;;;;;;;;19.39;57.92;96598.72;30001;983;1884;-58
2022/06/26 00:05:10;;;;;;;;;;;;;;;19.39;58.05;96598.72;30001;983;1880;-58
2022/06/26 00:05:41;;;;;;;;;;;;;;;19.39;58.09;96593.22;30001;983;1871;-58
2022/06/26 00:06:12;;;;;;;;;;;;;;;19.39;58.09;96601.47;30001;983;1871;-58
2022/06/26 00:06:43;;;;;;;;;;;;;;;19.38;58.29;96591.63;30001;983;1884;-57
2022/06/26 00:07:17;;;;;;;;;;;;;;;19.36;58.22;96599.41;30001;983;1880;-59
2022/06/26 00:07:48;;;;;;;;;;;;;;;19.38;58.45;96594.37;30001;983;1884;-58
2022/06/26 00:08:19;;;;;;;;;;;;;;;19.35;58.27;96597.81;30001;983;1880;-59
2022/06/26 00:08:50;;;;;;;;;;;;;;;19.34;58.30;96596.22;30001;983;1884;-58
2022/06/26 00:09:21;;;;;;;;;;;;;;;19.32;58.36;96604.03;30001;982;1880;-56
2022/06/26 00:09:52;;;;;;;;;;;;;;;19.31;58.68;96596.94;30001;982;1885;-58
2022/06/26 00:10:23;;;;;;;;;;;;;;;19.31;58.48;96599.69;30001;982;1880;-57
2022/06/26 00:10:57;;;;;;;;;;;;;;;19.28;58.65;96603.16;30001;982;1872;-57
2022/06/26 00:11:28;;;;;;;;;;;;;;;19.27;58.80;96604.31;30001;983;1871;-57
2022/06/26 00:11:59;;;;;;;;;;;;;;;19.26;58.94;96610.97;30001;983;1884;-58
2022/06/26 00:12:30;;;;;;;;;;;;;;;19.26;58.68;96612.91;30001;983;1880;-58
2022/06/26 00:13:01;;;;;;;;;;;;;;;19.27;59.00;96617.25;30002;807;1014;-58
2022/06/26 00:13:35;;;;;;;;;;;;;;;19.27;58.69;96618.06;30001;983;1880;-58
2022/06/26 00:14:06;;;;;;;;;;;;;;;19.26;58.99;96621.97;30001;983;1884;-58
2022/06/26 00:14:37;;;;;;;;;;;;;;;19.25;58.83;96620.38;30001;983;1867;-57
2022/06/26 00:15:10;;;;;;;;;;;;;;;19.24;58.97;96618.75;30001;983;1875;-57
2022/06/26 00:15:41;;;;;;;;;;;;;;;19.21;58.68;96619.47;30001;983;1880;-58
2022/06/26 00:16:12;;;;;;;;;;;;;;;19.20;59.30;96631.63;30001;983;1885;-57
2022/06/26 00:16:43;;;;;;;;;;;;;;;19.18;59.21;96628.44;30001;979;1894;-57
2022/06/26 00:17:13;;;;;;;;;;;;;;;19.18;59.66;96625.69;30001;982;1884;-58
2022/06/26 00:17:44;;;;;;;;;;;;;;;19.20;59.38;96631.63;30001;982;1880;-59
2022/06/26 00:18:15;;;;;;;;;;;;;;;19.20;59.44;96633.56;30001;982;1846;-57
2022/06/26 00:18:46;;;;;;;;;;;;;;;19.20;59.39;96628.06;30001;982;1871;-58
2022/06/26 00:19:17;;;;;;;;;;;;;;;19.19;59.54;96629.22;30001;983;1884;-58
2022/06/26 00:19:48;;;;;;;;;;;;;;;19.17;59.89;96634.28;30001;983;1880;-57
2022/06/26 00:20:21;;;;;;;;;;;;;;;19.16;59.85;96632.69;30001;983;1884;-59
2022/06/26 00:20:52;;;;;;;;;;;;;;;19.19;59.64;96635.53;30001;983;1880;-58
2022/06/26 00:21:23;;;;;;;;;;;;;;;19.26;59.13;96632.97;30001;983;1884;-58
2022/06/26 00:21:55;;;;;;;;;;;;;;;19.28;59.22;96630.66;30001;983;1880;-57
2022/06/26 00:22:26;;;;;;;;;;;;;;;19.26;59.31;96632.97;30001;983;1884;-57
2022/06/26 00:22:57;;;;;;;;;;;;;;;19.25;59.61;96636.88;30001;983;1880;-58
2022/06/26 00:23:28;;;;;;;;;;;;;;;19.24;59.39;96639.97;30001;982;1871;-57
2022/06/26 00:23:59;;;;;;;;;;;;;;;19.21;59.42;96640.69;30001;982;1871;-58
2022/06/26 00:24:30;;;;;;;;;;;;;;;19.18;59.75;96639.44;30001;982;1884;-56
2022/06/26 00:25:01;;;;;;;;;;;;;;;19.17;59.78;96637.03;30001;982;1880;-56
2022/06/26 00:25:32;;;;;;;;;;;;;;;19.16;59.90;96636.25;30001;982;1885;-57
2022/06/26 00:26:03;;;;;;;;;;;;;;;19.15;59.99;96637.38;30001;982;1880;-57
2022/06/26 00:26:34;;;;;;;;;;;;;;;19.15;59.86;96648.37;30001;983;1884;-58
2022/06/26 00:27:06;;;;;;;;;;;;;;;19.15;59.80;96642.09;30001;983;1879;-56
2022/06/26 00:27:37;;;;;;;;;;;;;;;19.16;60.16;96647.25;30001;983;1884;-59
2022/06/26 00:28:08;;;;;;;;;;;;;;;19.16;60.00;96644.47;30001;983;1880;-57
2022/06/26 00:28:39;;;;;;;;;;;;;;;19.16;60.30;96658.25;30001;983;1871;-59
2022/06/26 00:29:12;;;;;;;;;;;;;;;19.13;60.21;96649.88;30001;983;1871;-57
2022/06/26 00:29:43;;;;;;;;;;;;;;;19.08;60.23;96653.69;30001;983;1871;-57
2022/06/26 00:30:15;;;;;;;;;;;;;;;19.06;60.27;96653.25;30001;983;1871;-56
2022/06/26 00:30:46;;;;;;;;;;;;;;;19.05;60.82;96657.97;30001;982;1884;-56
2022/06/26 00:31:17;;;;;;;;;;;;;;;19.05;60.76;96659.94;30001;982;1799;-59
2022/06/26 00:31:48;;;;;;;;;;;;;;;19.03;60.74;96670.47;30001;982;1884;-56
2022/06/26 00:32:19;;;;;;;;;;;;;;;19.00;60.38;96673.94;30001;982;1880;-58
2022/06/26 00:32:53;;;;;;;;;;;;;;;18.98;60.68;96681.75;30001;982;1885;-55
2022/06/26 00:33:24;;;;;;;;;;;;;;;18.93;60.94;96680.03;30001;982;1881;-58
2022/06/26 00:33:56;;;;;;;;;;;;;;;18.91;61.16;96682.34;30001;982;1885;-58
2022/06/26 00:34:27;;;;;;;;;;;;;;;18.96;61.09;96689.53;30001;983;1879;-58
2022/06/26 00:34:58;;;;;;;;;;;;;;;18.97;61.22;96691.94;30001;983;1871;-57
2022/06/26 00:35:29;;;;;;;;;;;;;;;18.99;61.31;96683.34;30001;983;1871;-57
2022/06/26 00:36:00;;;;;;;;;;;;;;;19.07;60.67;96687.84;30001;970;1905;-57
2022/06/26 00:36:31;;;;;;;;;;;;;;;19.04;60.55;96683.09;30001;983;1880;-58
2022/06/26 00:37:02;;;;;;;;;;;;;;;19.12;60.61;96681.28;30001;983;1884;-58
2022/06/26 00:37:33;;;;;;;;;;;;;;;19.13;61.01;96685.66;30001;983;1880;-56
2022/06/26 00:38:04;;;;;;;;;;;;;;;19.16;60.38;96680.25;30001;983;1885;-58
2022/06/26 00:38:35;;;;;;;;;;;;;;;19.15;60.38;96670.37;30001;982;1867;-59
2022/06/26 00:39:09;;;;;;;;;;;;;;;19.10;60.36;96667.91;30001;982;1876;-57
2022/06/26 00:39:40;;;;;;;;;;;;;;;19.05;60.55;96673.69;30001;982;1880;-56
2022/06/26 00:40:11;;;;;;;;;;;;;;;19.05;60.54;96665.44;30001;982;1885;-56
2022/06/26 00:40:42;;;;;;;;;;;;;;;19.02;60.45;96666.94;30001;982;1881;-57
2022/06/26 00:41:13;;;;;;;;;;;;;;;19.01;60.29;96665.34;30001;982;1885;-56
2022/06/26 00:41:44;;;;;;;;;;;;;;;19.00;60.32;96669.22;30001;983;1880;-57
2022/06/26 00:42:16;;;;;;;;;;;;;;;19.05;60.37;96676.44;30001;983;1884;-58
2022/06/26 00:42:47;;;;;;;;;;;;;;;19.03;60.35;96674.03;30001;983;1880;-57
2022/06/26 00:43:18;;;;;;;;;;;;;;;19.01;60.40;96681.03;30001;983;1871;-57
2022/06/26 00:43:49;;;;;;;;;;;;;;;18.98;61.06;96687.25;30001;983;1871;-58
2022/06/26 00:44:21;;;;;;;;;;;;;;;18.94;60.68;96681.62;30001;983;1884;-57
2022/06/26 00:44:56;;;;;;;;;;;;;;;18.94;60.60;96681.62;30001;983;1867;-58
2022/06/26 00:45:27;;;;;;;;;;;;;;;18.98;60.90;96684.50;30001;983;1875;-57
2022/06/26 00:45:58;;;;;;;;;;;;;;;18.96;61.34;96684.03;30001;982;1784;-58
2022/06/26 00:46:29;;;;;;;;;;;;;;;18.94;61.08;96691.84;30001;982;1884;-56
2022/06/26 00:46:59;;;;;;;;;;;;;;;18.93;61.10;96690.25;30001;982;1880;-57
2022/06/26 00:47:33;;;;;;;;;;;;;;;18.92;60.64;96688.62;30001;982;1885;-57
2022/06/26 00:48:04;;;;;;;;;;;;;;;18.91;61.03;96692.53;30001;982;1880;-57
2022/06/26 00:48:35;;;;;;;;;;;;;;;18.90;60.78;96691.72;30001;982;1885;-57
2022/06/26 00:49:09;;;;;;;;;;;;;;;18.92;61.01;96689.44;30001;982;1880;-58
2022/06/26 00:49:44;;;;;;;;;;;;;;;18.92;60.81;96694.13;30001;983;1884;-58
2022/06/26 00:50:15;;;;;;;;;;;;;;;18.92;60.89;96699.63;30001;983;1866;-57
2022/06/26 00:50:47;;;;;;;;;;;;;;;18.90;60.89;96699.19;30001;983;1875;-57
2022/06/26 00:51:19;;;;;;;;;;;;;;;18.92;60.87;96696.88;30001;983;1880;-58
2022/06/26 00:51:51;;;;;;;;;;;;;;;18.98;60.54;96698.22;30001;983;1884;-58
2022/06/26 00:52:22;;;;;;;;;;;;;;;19.01;60.17;96695.59;30001;983;1880;-57
2022/06/26 00:52:53;;;;;;;;;;;;;;;19.03;60.23;96700.72;30001;983;1884;-63
2022/06/26 00:53:24;;;;;;;;;;;;;;;19.06;60.15;96695.31;30001;982;1881;-58
2022/06/26 00:53:55;;;;;;;;;;;;;;;19.06;60.05;96700.00;30001;982;1884;-58
2022/06/26 00:54:28;;;;;;;;;;;;;;;19.05;60.06;96701.19;30001;982;1880;-58
2022/06/26 00:54:59;;;;;;;;;;;;;;;19.09;60.20;96699.28;30001;982;1871;-58
2022/06/26 00:55:30;;;;;;;;;;;;;;;19.15;60.16;96695.16;30001;982;1871;-56
2022/06/26 00:56:01;;;;;;;;;;;;;;;19.18;59.95;96707.38;30001;983;1884;-57
2022/06/26 00:56:36;;;;;;;;;;;;;;;19.26;59.26;96698.97;30001;983;1879;-61
2022/06/26 00:57:07;;;;;;;;;;;;;;;19.29;59.38;96692.78;30001;983;1884;-56
2022/06/26 00:57:39;;;;;;;;;;;;;;;19.29;59.85;96698.28;30001;983;1880;-58
2022/06/26 00:58:10;;;;;;;;;;;;;;;19.26;60.08;96709.19;30001;983;1884;-57
2022/06/26 00:58:41;;;;;;;;;;;;;;;19.23;59.90;96705.19;30001;983;1880;-58
2022/06/26 00:59:13;;;;;;;;;;;;;;;19.22;59.77;96703.59;30001;983;1884;-57
2022/06/26 00:59:44;;;;;;;;;;;;;;;19.21;59.51;96703.94;30001;983;1867;-59
2022/06/26 01:00:16;;;;;;;;;;;;;;;19.22;59.85;96703.59;30001;983;1875;-59
2022/06/26 01:00:47;;;;;;;;;;;;;;;19.25;59.62;96708.37;30001;986;1872;-59
2022/06/26 01:01:18;;;;;;;;;;;;;;;19.25;59.84;96697.38;30001;982;1884;-57
2022/06/26 01:01:48;;;;;;;;;;;;;;;19.25;60.07;96707.59;30001;982;1880;-57
2022/06/26 01:02:19;;;;;;;;;;;;;;;19.24;60.13;96704.03;30001;982;1884;-59
2022/06/26 01:02:50;;;;;;;;;;;;;;;19.24;59.93;96706.78;30001;982;1880;-59
2022/06/26 01:03:21;;;;;;;;;;;;;;;19.25;59.90;96708.37;30001;982;1885;-58
2022/06/26 01:03:53;;;;;;;;;;;;;;;19.23;61.09;96715.37;30001;983;1879;-58
2022/06/26 01:04:25;;;;;;;;;;;;;;;19.21;60.49;96707.50;30001;986;1884;-57
2022/06/26 01:04:56;;;;;;;;;;;;;;;19.18;61.68;96702.69;30001;983;1866;-57
2022/06/26 01:05:27;;;;;;;;;;;;;;;19.19;61.04;96709.78;30001;983;1875;-59
2022/06/26 01:05:58;;;;;;;;;;;;;;;19.23;60.36;96710.69;30001;983;1880;-63
2022/06/26 01:06:29;;;;;;;;;;;;;;;19.31;60.42;96717.97;30001;983;1884;-64
2022/06/26 01:07:01;;;;;;;;;;;;;;;19.31;60.20;96706.97;30001;983;1880;-57
2022/06/26 01:07:33;;;;;;;;;;;;;;;19.31;60.16;96708.94;30001;983;1884;-57
2022/06/26 01:08:04;;;;;;;;;;;;;;;19.27;60.14;96711.59;30001;983;1880;-57
2022/06/26 01:08:36;;;;;;;;;;;;;;;19.25;60.14;96718.59;30001;971;1891;-58
2022/06/26 01:09:07;;;;;;;;;;;;;;;19.22;60.76;96713.78;30001;982;1872;-59
2022/06/26 01:09:39;;;;;;;;;;;;;;;19.20;61.16;96716.09;30001;982;1885;-56
2022/06/26 01:10:09;;;;;;;;;;;;;;;19.16;61.46;96713.25;30001;982;1880;-58
2022/06/26 01:10:40;;;;;;;;;;;;;;;19.14;61.17;96712.00;30001;982;1885;-58
2022/06/26 01:11:23;;;;;;;;;;;;;;;19.10;61.15;96717.41;30001;983;1879;-58
2022/06/26 01:11:54;;;;;;;;;;;;;;;19.09;61.45;96715.78;30001;983;1871;-58
2022/06/26 01:12:26;;;;;;;;;;;;;;;19.07;61.46;96712.59;30001;983;1871;-66
2022/06/26 01:12:59;;;;;;;;;;;;;;;19.11;61.28;96719.00;30001;983;1884;-59
2022/06/26 01:13:30;;;;;;;;;;;;;;;19.14;61.14;96717.50;30001;983;1880;-60
2022/06/26 01:14:03;;;;;;;;;;;;;;;19.13;61.57;96716.69;30001;983;1871;-57
2022/06/26 01:14:34;;;;;;;;;;;;;;;19.09;61.32;96719.34;30001;983;1871;-65
2022/06/26 01:15:08;;;;;;;;;;;;;;;19.11;61.97;96713.50;30001;983;1884;-58
2022/06/26 01:15:39;;;;;;;;;;;;;;;19.07;61.88;96712.59;30001;983;1881;-58
2022/06/26 01:16:11;;;;;;;;;;;;;;;19.04;62.61;96718.81;30001;982;1884;-57
2022/06/26 01:16:42;;;;;;;;;;;;;;;19.00;63.09;96712.44;30001;982;1880;-55
2022/06/26 01:17:13;;;;;;;;;;;;;;;18.96;62.61;96711.53;30001;982;1885;-56
2022/06/26 01:17:45;;;;;;;;;;;;;;;18.95;62.34;96721.72;30001;982;1880;-58
2022/06/26 01:18:16;;;;;;;;;;;;;;;18.95;62.75;96718.19;30001;982;1885;-57
2022/06/26 01:18:48;;;;;;;;;;;;;;;18.94;62.38;96719.31;30001;983;1867;-59
2022/06/26 01:19:20;;;;;;;;;;;;;;;18.95;62.33;96704.44;30001;983;1875;-58
2022/06/26 01:19:52;;;;;;;;;;;;;;;18.94;62.31;96708.34;30001;983;1880;-57
2022/06/26 01:20:23;;;;;;;;;;;;;;;18.94;61.97;96705.59;30001;983;1884;-60
2022/06/26 01:20:54;;;;;;;;;;;;;;;18.93;62.18;96701.22;30001;983;1880;-57
2022/06/26 01:21:25;;;;;;;;;;;;;;;18.93;62.29;96706.72;30001;983;1884;-57
2022/06/26 01:21:56;;;;;;;;;;;;;;;18.91;62.29;96703.53;30001;983;1880;-57
2022/06/26 01:22:28;;;;;;;;;;;;;;;18.90;62.43;96701.94;30001;983;1884;-58
2022/06/26 01:23:04;;;;;;;;;;;;;;;18.91;62.37;96698.03;30001;983;1880;-57
2022/06/26 01:23:35;;;;;;;;;;;;;;;18.92;62.88;96703.19;30001;982;1884;-59
2022/06/26 01:24:07;;;;;;;;;;;;;;;18.92;62.40;96699.63;30001;966;1892;-59
2022/06/26 01:24:38;;;;;;;;;;;;;;;18.93;62.73;96696.53;30001;982;1876;-60
2022/06/26 01:25:09;;;;;;;;;;;;;;;18.96;62.35;96700.53;30001;982;1880;-58
2022/06/26 01:25:47;;;;;;;;;;;;;;;18.97;62.14;96699.38;30001;982;1872;-59
2022/06/26 01:26:19;;;;;;;;;;;;;;;18.99;62.16;96702.59;30001;983;1857;-58
2022/06/26 01:26:49;;;;;;;;;;;;;;;19.01;62.32;96697.53;30001;983;1884;-58
2022/06/26 01:27:20;;;;;;;;;;;;;;;19.00;62.18;96695.94;30001;983;1880;-57
2022/06/26 01:27:53;;;;;;;;;;;;;;;18.98;62.28;96696.28;30001;983;1884;-57
2022/06/26 01:28:23;;;;;;;;;;;;;;;18.96;62.80;96689.53;30001;983;1880;-58
2022/06/26 01:28:54;;;;;;;;;;;;;;;18.94;62.88;96700.09;30001;983;1884;-57
2022/06/26 01:29:25;;;;;;;;;;;;;;;18.91;62.50;96692.53;30001;983;1879;-57
2022/06/26 01:29:56;;;;;;;;;;;;;;;18.90;63.09;96696.44;30001;983;1884;-56
2022/06/26 01:30:29;;;;;;;;;;;;;;;18.89;62.78;96694.84;30001;982;1867;-57
2022/06/26 01:31:00;;;;;;;;;;;;;;;18.89;62.56;96689.34;30001;982;1862;-58
2022/06/26 01:31:33;;;;;;;;;;;;;;;18.88;62.81;96688.53;30001;982;1867;-58
2022/06/26 01:32:05;;;;;;;;;;;;;;;18.88;63.00;96682.25;30001;982;1876;-57
2022/06/26 01:32:36;;;;;;;;;;;;;;;18.88;62.77;96682.25;30001;967;1905;-58
2022/06/26 01:33:08;;;;;;;;;;;;;;;18.87;62.91;96677.87;30001;982;1885;-57
2022/06/26 01:33:39;;;;;;;;;;;;;;;18.87;62.71;96669.66;30001;983;1879;-58
2022/06/26 01:34:10;;;;;;;;;;;;;;;18.87;62.96;96670.44;30001;983;1884;-59
2022/06/26 01:34:41;;;;;;;;;;;;;;;18.87;63.14;96666.91;30001;983;1880;-58
2022/06/26 01:35:12;;;;;;;;;;;;;;;18.90;62.84;96666.19;30001;983;1884;-57
2022/06/26 01:35:43;;;;;;;;;;;;;;;18.91;62.73;96670.53;30001;983;1880;-57
2022/06/26 01:36:14;;;;;;;;;;;;;;;18.93;62.70;96663.53;30001;983;1871;-58
2022/06/26 01:36:46;;;;;;;;;;;;;;;18.96;62.72;96662.03;30001;983;1871;-57
2022/06/26 01:37:16;;;;;;;;;;;;;;;18.97;62.80;96656.19;30001;983;1884;-59
2022/06/26 01:37:48;;;;;;;;;;;;;;;18.96;62.64;96662.84;30001;983;1880;-57
2022/06/26 01:38:23;;;;;;;;;;;;;;;18.97;62.59;96649.91;30001;982;1884;-58
2022/06/26 01:38:53;;;;;;;;;;;;;;;18.98;62.18;96654.25;30001;982;1880;-56
2022/06/26 01:39:24;;;;;;;;;;;;;;;18.97;62.41;96652.63;30001;982;1884;-57
2022/06/26 01:39:55;;;;;;;;;;;;;;;18.95;62.68;96658.50;30001;982;1880;-57
2022/06/26 01:40:27;;;;;;;;;;;;;;;18.92;62.73;96656.44;30001;982;1885;-57
2022/06/26 01:40:58;;;;;;;;;;;;;;;18.92;62.22;96664.69;30001;982;1763;-57
2022/06/26 01:41:29;;;;;;;;;;;;;;;18.92;63.01;96661.94;30001;983;1875;-60
2022/06/26 01:42:00;;;;;;;;;;;;;;;18.95;62.43;96660.44;30001;983;1866;-58
2022/06/26 01:42:30;;;;;;;;;;;;;;;18.94;62.80;96664.34;30001;983;1875;-60
2022/06/26 01:43:01;;;;;;;;;;;;;;;18.94;62.75;96662.41;30001;983;1880;-60
2022/06/26 01:43:33;;;;;;;;;;;;;;;18.96;62.85;96667.53;30001;983;1884;-56
2022/06/26 01:44:07;;;;;;;;;;;;;;;18.96;62.60;96662.03;30001;983;1880;-58
2022/06/26 01:44:38;;;;;;;;;;;;;;;18.96;63.04;96667.53;30001;983;1884;-58
2022/06/26 01:45:10;;;;;;;;;;;;;;;18.98;62.84;96665.25;30001;983;1880;-57
2022/06/26 01:45:42;;;;;;;;;;;;;;;19.01;62.52;96681.03;30001;982;1884;-58
2022/06/26 01:46:14;;;;;;;;;;;;;;;19.02;62.32;96677.94;30001;982;1880;-58
2022/06/26 01:46:48;;;;;;;;;;;;;;;19.07;62.32;96690.59;30001;982;1871;-61
2022/06/26 01:47:19;;;;;;;;;;;;;;;19.11;62.15;96697.00;30001;982;1871;-59
2022/06/26 01:47:50;;;;;;;;;;;;;;;19.14;62.28;96712.78;30001;982;1885;-59
2022/06/26 01:48:22;;;;;;;;;;;;;;;19.14;61.98;96706.50;30001;982;1880;-58
2022/06/26 01:48:53;;;;;;;;;;;;;;;19.12;62.60;96715.09;30001;983;1884;-58
2022/06/26 01:49:25;;;;;;;;;;;;;;;19.10;62.46;96720.16;30001;983;1879;-57
2022/06/26 01:49:57;;;;;;;;;;;;;;;19.09;62.74;96726.78;30001;983;1884;-58
2022/06/26 01:50:28;;;;;;;;;;;;;;;19.05;62.99;96720.44;30001;983;1880;-57
2022/06/26 01:51:00;;;;;;;;;;;;;;;19.01;63.81;96714.81;30001;983;1884;-58
2022/06/26 01:51:31;;;;;;;;;;;;;;;18.98;63.75;96703.72;30001;983;1866;-58
2022/06/26 01:52:02;;;;;;;;;;;;;;;18.95;64.65;96696.19;30001;983;1875;-58
2022/06/26 01:52:33;;;;;;;;;;;;;;;18.90;65.42;96690.94;30001;983;1880;-58
2022/06/26 01:53:05;;;;;;;;;;;;;;;18.86;65.19;96695.53;30001;982;1884;-58
2022/06/26 01:53:36;;;;;;;;;;;;;;;18.84;64.98;96701.37;30001;982;1880;-61
2022/06/26 01:54:07;;;;;;;;;;;;;;;18.81;64.65;96688.34;30001;982;1884;-57
2022/06/26 01:54:38;;;;;;;;;;;;;;;18.80;64.85;96696.94;30001;982;1880;-57
2022/06/26 01:55:09;;;;;;;;;;;;;;;18.78;64.43;96701.97;30001;982;1885;-56
2022/06/26 01:55:40;;;;;;;;;;;;;;;18.79;64.84;96709.88;30001;982;1880;-58
2022/06/26 01:56:10;;;;;;;;;;;;;;;18.81;64.42;96706.78;30001;982;1885;-59
2022/06/26 01:56:43;;;;;;;;;;;;;;;18.83;64.41;96701.72;30001;983;1866;-58
2022/06/26 01:57:14;;;;;;;;;;;;;;;18.84;64.49;96697.84;30001;983;1875;-59
2022/06/26 01:57:44;;;;;;;;;;;;;;;18.82;65.05;96705.63;30001;983;1880;-59
2022/06/26 01:58:15;;;;;;;;;;;;;;;18.78;65.42;96697.28;30001;983;1884;-57
2022/06/26 01:58:46;;;;;;;;;;;;;;;18.80;65.18;96691.44;30001;983;1880;-56
2022/06/26 01:59:17;;;;;;;;;;;;;;;18.82;65.49;96683.63;30001;983;1870;-56
2022/06/26 01:59:48;;;;;;;;;;;;;;;18.81;65.47;96682.03;30001;983;1871;-57
2022/06/26 02:00:22;;;;;;;;;;;;;;;18.77;65.81;96681.12;30001;983;1884;-58
2022/06/26 02:00:54;;;;;;;;;;;;;;;18.71;65.48;96686.88;30001;982;1880;-57
2022/06/26 02:01:25;;;;;;;;;;;;;;;18.69;65.42;96685.66;30001;982;1884;-58
2022/06/26 02:01:55;;;;;;;;;;;;;;;18.64;65.63;96683.97;30001;982;1880;-58
2022/06/26 02:02:26;;;;;;;;;;;;;;;18.63;65.34;96687.84;30001;986;1884;-57
2022/06/26 02:02:57;;;;;;;;;;;;;;;18.62;65.43;96680.75;30001;982;1880;-58
2022/06/26 02:03:28;;;;;;;;;;;;;;;18.62;65.61;96680.75;30001;983;1883;-59
2022/06/26 02:03:59;;;;;;;;;;;;;;;18.62;65.45;96686.25;30001;983;1879;-57
2022/06/26 02:04:30;;;;;;;;;;;;;;;18.63;65.18;96682.34;30001;983;1870;-57
2022/06/26 02:05:01;;;;;;;;;;;;;;;18.63;65.40;96693.34;30001;983;1871;-57
2022/06/26 02:05:32;;;;;;;;;;;;;;;18.62;65.57;96696.44;30001;983;1884;-58
2022/06/26 02:06:03;;;;;;;;;;;;;;;18.60;65.41;96694.03;30001;983;1879;-57
2022/06/26 02:06:35;;;;;;;;;;;;;;;18.60;65.33;96696.78;30001;983;1884;-57
2022/06/26 02:07:06;;;;;;;;;;;;;;;18.59;65.39;96692.41;30001;987;1880;-58
2022/06/26 02:07:36;;;;;;;;;;;;;;;18.58;65.59;96696.31;30001;983;1884;-57
2022/06/26 02:08:08;;;;;;;;;;;;;;;18.58;65.81;96695.50;30001;982;1880;-57
2022/06/26 02:08:39;;;;;;;;;;;;;;;18.56;65.99;96698.59;30001;982;1884;-57
2022/06/26 02:13:36;;;;;;;;;;;;;;;18.56;66.46;96703.31;30001;982;1880;-60
2022/06/26 02:13:42;;;;;;;;;;;;;;;18.42;66.43;96707.22;30001;983;1884;-58
2022/06/26 02:14:13;;;;;;;;;;;;;;;18.42;66.52;96707.22;30001;983;1880;-61
2022/06/26 02:14:45;;;;;;;;;;;;;;;18.41;66.53;96708.37;30001;983;1884;-61
2022/06/26 02:15:16;;;;;;;;;;;;;;;18.41;66.41;96708.37;30001;983;1867;-58
2022/06/26 02:15:46;;;;;;;;;;;;;;;18.41;66.33;96713.06;30001;982;1875;-58
2022/06/26 02:16:19;;;;;;;;;;;;;;;18.40;66.36;96712.25;30001;982;1880;-58
2022/06/26 02:16:52;;;;;;;;;;;;;;;18.40;66.41;96712.25;30001;975;1899;-57
2022/06/26 02:17:23;;;;;;;;;;;;;;;18.40;66.25;96714.22;30001;982;1880;-60
2022/06/26 02:17:55;;;;;;;;;;;;;;;18.39;67.03;96709.88;30001;982;1884;-62
2022/06/26 02:18:26;;;;;;;;;;;;;;;18.38;66.50;96714.56;30001;983;1879;-61
2022/06/26 02:18:58;;;;;;;;;;;;;;;18.38;66.59;96716.50;30001;983;1884;-58
2022/06/26 02:19:29;;;;;;;;;;;;;;;18.36;66.55;96711.38;30001;983;1879;-58
2022/06/26 02:20:00;;;;;;;;;;;;;;;18.36;66.91;96711.38;30001;983;1884;-61
2022/06/26 02:20:31;;;;;;;;;;;;;;;18.35;66.67;96714.47;30001;983;1866;-58
2022/06/26 02:21:04;;;;;;;;;;;;;;;18.34;66.76;96718.38;30001;983;1875;-57
2022/06/26 02:21:38;;;;;;;;;;;;;;;18.34;67.04;96721.13;30001;983;1880;-59
2022/06/26 02:22:09;;;;;;;;;;;;;;;18.32;67.04;96726.97;30001;983;1884;-61
2022/06/26 02:22:40;;;;;;;;;;;;;;;18.32;67.15;96726.16;30001;982;1880;-58
2022/06/26 02:23:11;;;;;;;;;;;;;;;18.31;68.12;96728.09;30001;982;1884;-57
2022/06/26 02:23:45;;;;;;;;;;;;;;;18.28;68.02;96726.06;30001;982;1867;-58
2022/06/26 02:24:16;;;;;;;;;;;;;;;18.26;68.12;96728.34;30001;982;1876;-61
2022/06/26 02:24:47;;;;;;;;;;;;;;;18.27;67.71;96729.13;30001;982;1867;-61
2022/06/26 02:25:17;;;;;;;;;;;;;;;18.25;68.03;96731.44;30001;982;1876;-57
2022/06/26 02:25:48;;;;;;;;;;;;;;;18.24;68.30;96725.13;30001;983;1879;-58
2022/06/26 02:26:20;;;;;;;;;;;;;;;18.23;68.15;96730.97;30001;983;1884;-58
2022/06/26 02:26:51;;;;;;;;;;;;;;;18.21;67.96;96730.53;30001;983;1879;-57
2022/06/26 02:27:22;;;;;;;;;;;;;;;18.21;68.34;96736.00;30001;983;1884;-58
2022/06/26 02:27:54;;;;;;;;;;;;;;;18.20;69.01;96728.91;30001;983;1879;-59
2022/06/26 02:28:25;;;;;;;;;;;;;;;18.19;69.01;96732.81;30001;983;1884;-60
2022/06/26 02:28:56;;;;;;;;;;;;;;;18.17;68.53;96724.13;30001;983;1866;-60
2022/06/26 02:29:27;;;;;;;;;;;;;;;18.17;68.99;96729.59;30001;983;1876;-58
2022/06/26 02:29:58;;;;;;;;;;;;;;;18.15;68.52;96727.19;30001;982;1880;-57
2022/06/26 02:30:28;;;;;;;;;;;;;;;18.16;68.34;96722.50;30001;982;1884;-57
2022/06/26 02:31:00;;;;;;;;;;;;;;;18.14;68.59;96719.31;30001;982;1880;-56
2022/06/26 02:31:31;;;;;;;;;;;;;;;18.14;68.38;96733.03;30001;982;1884;-58
2022/06/26 02:32:02;;;;;;;;;;;;;;;18.13;68.53;96728.69;30001;982;1880;-58
2022/06/26 02:32:32;;;;;;;;;;;;;;;18.12;68.35;96727.09;30001;982;1884;-57
2022/06/26 02:33:03;;;;;;;;;;;;;;;18.12;68.34;96727.09;30001;982;1880;-57
2022/06/26 02:33:35;;;;;;;;;;;;;;;18.12;68.42;96725.16;30001;983;1884;-58
2022/06/26 02:34:06;;;;;;;;;;;;;;;18.12;69.21;96727.09;30001;983;1866;-58
2022/06/26 02:34:36;;;;;;;;;;;;;;;18.08;69.29;96716.78;30001;983;1875;-58
2022/06/26 02:35:08;;;;;;;;;;;;;;;18.07;68.92;96723.44;30001;983;1879;-57
2022/06/26 02:35:39;;;;;;;;;;;;;;;18.06;68.74;96718.28;30001;983;1884;-59
2022/06/26 02:36:10;;;;;;;;;;;;;;;18.05;68.84;96722.97;30001;983;1880;-60
2022/06/26 02:36:41;;;;;;;;;;;;;;;18.05;68.59;96717.50;30001;969;1907;-57
2022/06/26 02:37:12;;;;;;;;;;;;;;;18.05;68.48;96720.22;30001;983;1880;-57
2022/06/26 02:37:43;;;;;;;;;;;;;;;18.05;68.75;96712.00;30001;964;1902;-57
2022/06/26 02:38:15;;;;;;;;;;;;;;;18.05;68.63;96711.19;30001;982;1880;-58
2022/06/26 02:38:50;;;;;;;;;;;;;;;18.05;68.68;96712.00;30001;982;1884;-60
2022/06/26 02:39:20;;;;;;;;;;;;;;;18.04;68.49;96710.41;30001;982;1867;-59
2022/06/26 02:39:51;;;;;;;;;;;;;;;18.05;68.75;96717.50;30001;982;1876;-60
2022/06/26 02:40:24;;;;;;;;;;;;;;;18.04;68.58;96710.41;30001;982;1880;-57
2022/06/26 02:40:55;;;;;;;;;;;;;;;18.05;68.77;96711.19;30001;983;1884;-58
2022/06/26 02:41:27;;;;;;;;;;;;;;;18.05;68.62;96705.69;30001;983;1880;-57
2022/06/26 02:41:58;;;;;;;;;;;;;;;18.05;68.57;96711.19;30001;983;1884;-58
2022/06/26 02:42:28;;;;;;;;;;;;;;;18.06;68.64;96708.09;30001;983;1880;-57
2022/06/26 02:42:59;;;;;;;;;;;;;;;18.06;68.59;96702.63;30001;983;1884;-57
2022/06/26 02:43:30;;;;;;;;;;;;;;;18.06;68.87;96705.34;30001;983;1880;-61
2022/06/26 02:44:01;;;;;;;;;;;;;;;18.04;68.87;96704.91;30001;983;1870;-57
2022/06/26 02:44:32;;;;;;;;;;;;;;;18.05;68.71;96702.97;30001;983;1871;-57
2022/06/26 02:45:04;;;;;;;;;;;;;;;18.04;68.66;96699.41;30001;982;1884;-58
2022/06/26 02:45:35;;;;;;;;;;;;;;;18.06;68.56;96702.63;30001;982;1880;-58
2022/06/26 02:46:06;;;;;;;;;;;;;;;18.08;68.49;96700.31;30001;982;1884;-57
2022/06/26 02:46:36;;;;;;;;;;;;;;;18.08;69.00;96705.00;30001;982;1881;-60
2022/06/26 02:47:07;;;;;;;;;;;;;;;18.04;68.81;96702.16;30001;982;1885;-57
2022/06/26 02:47:39;;;;;;;;;;;;;;;18.04;68.65;96704.91;30001;982;1867;-61
2022/06/26 02:48:10;;;;;;;;;;;;;;;18.02;68.73;96707.19;30001;982;1876;-57
2022/06/26 02:48:44;;;;;;;;;;;;;;;18.02;69.17;96700.91;30001;983;1879;-60
2022/06/26 02:49:15;;;;;;;;;;;;;;;18.00;68.73;96698.53;30001;983;1884;-57
2022/06/26 02:49:46;;;;;;;;;;;;;;;18.01;68.50;96700.13;30001;983;1879;-60
2022/06/26 02:50:19;;;;;;;;;;;;;;;18.02;68.44;96707.19;30001;983;1884;-57
2022/06/26 02:50:50;;;;;;;;;;;;;;;18.00;68.75;96704.03;30001;983;1880;-60
2022/06/26 02:51:21;;;;;;;;;;;;;;;18.01;68.84;96707.56;30001;983;1884;-58
2022/06/26 02:51:51;;;;;;;;;;;;;;;17.99;69.39;96704.38;30001;983;1879;-61
2022/06/26 02:52:23;;;;;;;;;;;;;;;17.97;68.96;96704.72;30001;983;1884;-57